Wetterdaten von Putzkau
Wetterdaten: aktuell Dienstag, 24.05.2022 19:00
Datum Zeit Temp. A. Feuchte A. Luftdruck Regen Wind Windben
24.05.2022 19:00 18,4 C 75 % 1011,0 hPa 0,0 l/m 0,0 km/h (0 Bft) 0,0 km/h (0 Bft)
24.05.2022 18:00 19,7 C 74 % 1010,2 hPa 0,0 l/m 2,3 km/h (1 Bft) 5,0 km/h (1 Bft)
24.05.2022 17:00 19,0 C 78 % 1010,0 hPa 0,0 l/m 2,3 km/h (1 Bft) 2,9 km/h (1 Bft)
24.05.2022 16:01 19,5 C 79 % 1008,9 hPa 0,0 l/m 1,0 km/h (0 Bft) 1,6 km/h (1 Bft)
24.05.2022 15:26 20,2 C 77 % 1008,7 hPa 0,0 l/m 1,3 km/h (1 Bft) 2,6 km/h (1 Bft)
24.05.2022 14:26 20,3 C 80 % 1008,5 hPa 0,0 l/m 0,2 km/h (0 Bft) 0,0 km/h (0 Bft)
24.05.2022 13:26 18,4 C 82 % 1008,0 hPa 2,1 l/m 0,6 km/h (0 Bft) 0,0 km/h (0 Bft)
24.05.2022 12:26 21,5 C 67 % 1007,6 hPa 0,0 l/m 0,6 km/h (0 Bft) 2,4 km/h (1 Bft)
24.05.2022 11:26 19,8 C 68 % 1007,6 hPa 0,0 l/m 0,5 km/h (0 Bft) 0,0 km/h (0 Bft)
24.05.2022 10:26 19,5 C 70 % 1007,1 hPa 0,0 l/m 0,0 km/h (0 Bft) 0,0 km/h (0 Bft)
24.05.2022 09:26 20,6 C 69 % 1006,8 hPa 0,0 l/m 0,8 km/h (0 Bft) 3,4 km/h (1 Bft)
24.05.2022 08:26 18,6 C 72 % 1006,2 hPa 0,0 l/m 1,1 km/h (1 Bft) 3,4 km/h (1 Bft)
24.05.2022 07:26 17,3 C 74 % 1006,1 hPa 0,0 l/m 1,1 km/h (1 Bft) 1,9 km/h (1 Bft)
24.05.2022 06:26 17,2 C 72 % 1005,6 hPa 0,0 l/m 2,1 km/h (1 Bft) 3,5 km/h (1 Bft)
24.05.2022 05:26 16,9 C 71 % 1004,8 hPa 0,0 l/m 3,4 km/h (1 Bft) 3,2 km/h (1 Bft)
24.05.2022 04:26 16,8 C 68 % 1004,9 hPa 0,0 l/m 3,9 km/h (1 Bft) 10,9 km/h (2 Bft)
24.05.2022 03:26 16,9 C 65 % 1004,8 hPa 0,0 l/m 2,7 km/h (1 Bft) 5,8 km/h (2 Bft)
24.05.2022 02:26 17,5 C 62 % 1005,0 hPa 0,0 l/m 6,0 km/h (2 Bft) 7,7 km/h (2 Bft)
24.05.2022 01:26 18,2 C 59 % 1004,9 hPa 0,0 l/m 5,6 km/h (1 Bft) 4,8 km/h (1 Bft)
24.05.2022 00:26 18,1 C 58 % 1005,2 hPa 0,0 l/m 3,7 km/h (1 Bft) 0,0 km/h (0 Bft)
23.05.2022 23:26 18,3 C 57 % 1006,0 hPa 0,0 l/m 5,0 km/h (1 Bft) 4,2 km/h (1 Bft)
23.05.2022 22:26 18,6 C 54 % 1006,6 hPa 0,0 l/m 6,0 km/h (2 Bft) 7,9 km/h (2 Bft)
23.05.2022 21:26 18,1 C 57 % 1006,2 hPa 0,0 l/m 2,7 km/h (1 Bft) 3,2 km/h (1 Bft)
23.05.2022 20:30 17,9 C 59 % 1006,8 hPa 0,0 l/m 0,6 km/h (0 Bft) 2,3 km/h (1 Bft)
23.05.2022 20:00 18,3 C 58 % 1007,0 hPa 0,0 l/m 1,1 km/h (1 Bft) 2,1 km/h (1 Bft)
_ Min-Zeit 03:56 22:26 03:56 - 19:00 19:00
Minimum _ 16,7 C 54 % 1004,6 hPa - 0,0 km/h (0 Bft) 0,0 km/h (0 Bft)
_ Max-Zeit 10:56 13:26 19:00 13:26 01:56 04:26
Maximum _ 22,5 C 82 % 1011,0 hPa 2,1 l/m 6,6 km/h
S-SO (2 Bft)
10,9 km/h
S (2 Bft)
Durchschnitt _ 18,6 C 67 % 1006,9 hPa #2,1 l/m 2,3 km/h (1 Bft) 3,2 km/h (1 Bft)
© 2022 Michael Jger webmaster [at] putzkau.de